• Join FlightAware (Why Join?)
  • Login
  • US Flag 
12:51PM EDT


 

Airport Tracker/Info


-or-


 

Live Flight TrackerFlight Track Log ✈ DAL6234 ✈ 22-Apr-2013 ✈ KSYR - KLGA

Flight Track Log - Related Links

Times and Time Zones

All times are in EDT time to prevent confusion due to time zone crossing. See the DAL6234 flight status page for this flight to view local times or setup timezone preferences in your user account.

Time Position Orientation Groundspeed Altitude Reporting Facility
EDT Latitude Longitude Course Direction KTS MPH feet Rate Location/Type
07:21PM 43.1086 -76.0978 112° Southeast 150 173 1,100  Level Boston Center
07:22PM 43.0861 -76.0197 112° Southeast 226 260 3,200 2,340 Climbing Boston Center
07:23PM 43.0200 -75.9306 135° Southeast 268 308 7,000 2,940 Climbing Boston Center
07:24PM 42.9700 -75.8681 138° Southeast 268 308 10,100 3,000 Climbing Boston Center
07:25PM 42.9097 -75.7911 137° Southeast 275 316 13,100 2,400 Climbing Boston Center
07:26PM 42.8431 -75.7108 139° Southeast 298 343 15,000 1,800 Climbing Boston Center
07:27PM 42.7686 -75.6164 137° Southeast 335 386 16,800 1,500 Climbing Boston Center
07:28PM 42.6881 -75.5164 138° Southeast 369 425 18,100 600 Climbing Boston Center
07:29PM 42.6014 -75.4106 138° Southeast 401 461 18,000 -60 Descending Boston Center
07:30PM 42.5164 -75.3022 137° Southeast 418 481 18,000  Level Boston Center
07:31PM 42.4425 -75.1778 129° Southeast 418 481 18,000  Level Boston Center
07:32PM 42.3894 -75.0347 117° Southeast 418 481 18,000  Level Boston Center
07:33PM 42.3386 -74.8922 116° Southeast 424 488 18,000  Level Boston Center
07:34PM 42.2850 -74.7525 117° Southeast 419 482 18,000  Level Boston Center
07:35PM 42.2336 -74.6106 116° Southeast 419 482 18,000  Level Boston Center
07:36PM 42.1800 -74.4686 117° Southeast 419 482 18,000  Level Boston Center
07:37PM 42.1139 -74.3153 120° Southeast 419 482 18,000 -300 Level Boston Center
07:38PM 42.0258 -74.2203 141° Southeast 400 460 17,400 -1,140 Descending Boston Center
07:39PM 41.9225 -74.1617 157° South 399 459 15,800 -1,500 Descending Boston Center
07:40PM 41.8256 -74.0978 154° Southeast 399 459 14,400 -1,200 Descending Boston Center
07:41PM 41.7264 -74.0367 155° Southeast 399 459 13,400 -1,080 Descending Boston Center
07:42PM 41.6314 -73.9761 155° Southeast 393 452 12,300 -1,020 Descending Boston Center
07:44PM 41.5000 -73.9000 157° South 314 361 10,900 -960 Descending New York TRACON
07:45PM 41.4333 -73.8500 151° Southeast 274 315 10,100 -900 Descending New York TRACON
07:46PM 41.3667 -73.8167 159° South 280 322 9,100 -600 Descending New York TRACON
07:47PM 41.3000 -73.7667 151° Southeast 284 327 8,900 -780 Descending New York TRACON
07:48PM 41.2333 -73.7000 143° Southeast 270 311 7,700 -1,200 Descending New York TRACON
07:49PM 41.1667 -73.6500 151° Southeast 257 296 6,400 -1,140 Descending New York TRACON
07:50PM 41.1167 -73.6000 143° Southeast 261 300 5,400 -960 Descending New York TRACON
07:51PM 41.0500 -73.6500 209° Southwest 282 325 4,600 -660 Descending New York TRACON
07:52PM 40.9833 -73.7000 210° Southwest 272 313 4,100 -300 Descending New York TRACON
07:53PM 40.9333 -73.7667 225° Southwest 269 310 4,100  Level New York TRACON
07:54PM 40.9167 -73.8667 258° West 275 316 4,100  Level New York TRACON
07:55PM 40.8667 -73.9333 225° Southwest 261 300 4,100  Level New York TRACON
07:56PM 40.8000 -73.9667 201° Southwest 260 299 4,100  Level New York TRACON
07:56PM 40.7500 -74.0167 217° Southwest 244 281 4,100  Level New York TRACON
07:58PM 40.7000 -74.0500 207° Southwest 186 214 4,100 -240 Level New York TRACON
07:59PM 40.6500 -74.0833 207° Southwest 198 228 3,700 -480 Descending New York TRACON
08:00PM 40.6167 -74.0833 180° South 191 220 3,200 -360 Descending New York TRACON
08:01PM 40.6167 -74.0333 90° East 159 183 3,000 -240 Descending New York TRACON
08:02PM 40.6500 -73.9833 49° Northeast 169 194 2,800 -480 Descending New York TRACON
08:03PM 40.6833 -73.9500 37° Northeast 172 198 2,200 -840 Descending New York TRACON
08:04PM 40.7167 -73.9333 21° North 147 169 1,300 -840 Descending New York TRACON
08:05PM 40.7500 -73.9000 37° Northeast 124 143 600 -720 Descending New York TRACON